createdAt,value
2017-02-27T00:00:39.704Z,0
2017-02-27T00:01:49.277Z,0
2017-02-27T00:02:58.264Z,0
2017-02-27T00:04:07.244Z,0
2017-02-27T00:05:16.547Z,0
2017-02-27T00:06:25.630Z,0
2017-02-27T00:07:34.620Z,0
2017-02-27T00:08:43.615Z,0
2017-02-27T00:09:55.917Z,0
2017-02-27T00:11:08.638Z,0
2017-02-27T00:12:18.200Z,0
2017-02-27T00:13:30.257Z,0
2017-02-27T00:14:40.159Z,0
2017-02-27T00:15:50.487Z,0
2017-02-27T00:17:01.094Z,0
2017-02-27T00:18:10.153Z,0
2017-02-27T00:19:22.539Z,0
2017-02-27T00:20:32.362Z,0
2017-02-27T00:21:43.088Z,0
2017-02-27T00:22:55.463Z,0
2017-02-27T00:24:05.046Z,0
2017-02-27T00:25:16.536Z,0
2017-02-27T00:26:27.066Z,0
2017-02-27T00:27:36.051Z,0
2017-02-27T00:28:48.054Z,0
2017-02-27T00:29:57.859Z,0
2017-02-27T00:31:09.128Z,0
2017-02-27T00:32:21.628Z,0
2017-02-27T00:33:31.525Z,0
2017-02-27T00:34:42.596Z,0
2017-02-27T00:35:55.112Z,0
2017-02-27T00:37:05.485Z,0
2017-02-27T00:38:16.218Z,0
2017-02-27T00:39:28.695Z,0
2017-02-27T00:40:38.378Z,0
2017-02-27T00:41:48.087Z,0
2017-02-27T00:42:57.910Z,0
2017-02-27T00:44:08.594Z,0
2017-02-27T00:45:20.997Z,0
2017-02-27T00:46:31.359Z,0
2017-02-27T00:47:41.932Z,0
2017-02-27T00:48:54.616Z,0
2017-02-27T00:50:04.558Z,0
2017-02-27T00:51:15.491Z,0
2017-02-27T00:52:28.377Z,0
2017-02-27T00:53:38.488Z,0
2017-02-27T00:54:49.373Z,0
2017-02-27T00:56:01.609Z,0
2017-02-27T00:57:11.663Z,0
2017-02-27T00:58:22.685Z,0
2017-02-27T00:59:34.892Z,0
2017-02-27T01:00:45.086Z,0
2017-02-27T01:01:56.164Z,0
2017-02-27T01:03:08.630Z,0
2017-02-27T01:04:19.182Z,0
2017-02-27T01:05:29.703Z,0
2017-02-27T01:06:42.183Z,0
2017-02-27T01:07:52.410Z,0
2017-02-27T01:09:03.174Z,0
2017-02-27T01:10:15.871Z,0
2017-02-27T01:11:26.131Z,0
2017-02-27T01:12:36.731Z,0
2017-02-27T01:13:49.373Z,0
2017-02-27T01:14:59.682Z,0
2017-02-27T01:16:09.073Z,0
2017-02-27T01:17:18.070Z,0
2017-02-27T01:18:27.171Z,0
2017-02-27T01:19:36.234Z,0
2017-02-27T01:20:45.222Z,0
2017-02-27T01:21:54.517Z,0
2017-02-27T01:23:03.503Z,0
2017-02-27T01:24:12.489Z,0
2017-02-27T01:25:21.489Z,0
2017-02-27T01:26:30.481Z,0
2017-02-27T01:27:39.771Z,0
2017-02-27T01:28:48.772Z,0
2017-02-27T01:29:57.770Z,0
2017-02-27T01:31:07.346Z,0
2017-02-27T01:32:16.331Z,0
2017-02-27T01:33:25.615Z,0
2017-02-27T01:34:34.591Z,0
2017-02-27T01:52:46.112Z,0
2017-02-27T01:53:55.128Z,0
2017-02-27T01:55:04.127Z,0
2017-02-27T01:56:13.118Z,0
2017-02-27T01:57:22.439Z,0
2017-02-27T01:58:31.433Z,0
2017-02-27T01:59:40.416Z,0
2017-02-27T02:00:49.399Z,0
2017-02-27T02:01:58.381Z,0
2017-02-27T02:03:07.676Z,0
2017-02-27T02:04:16.754Z,0
2017-02-27T02:05:26.240Z,0
2017-02-27T02:06:35.240Z,0
2017-02-27T02:07:44.406Z,0
2017-02-27T02:08:53.682Z,0
2017-02-27T02:10:02.765Z,0
2017-02-27T02:11:12.614Z,0
2017-02-27T02:12:21.609Z,0
2017-02-27T02:13:30.631Z,0
2017-02-27T02:14:39.925Z,0
2017-02-27T02:15:48.901Z,0
2017-02-27T02:16:57.891Z,0
2017-02-27T02:18:07.303Z,0
2017-02-27T02:19:16.279Z,0
2017-02-27T02:20:25.514Z,0
2017-02-27T02:21:34.497Z,0
2017-02-27T02:22:43.475Z,0
2017-02-27T02:23:52.541Z,0
2017-02-27T02:25:01.531Z,0
2017-02-27T02:26:10.763Z,0
2017-02-27T02:27:20.168Z,0
2017-02-27T02:28:29.153Z,0
2017-02-27T02:29:38.553Z,0
2017-02-27T02:30:47.545Z,0
2017-02-27T02:31:56.871Z,0
2017-02-27T02:33:05.859Z,0
2017-02-27T02:34:15.584Z,0
2017-02-27T02:35:24.606Z,0
2017-02-27T02:36:33.608Z,0
2017-02-27T02:37:42.891Z,0
2017-02-27T02:38:51.891Z,0
2017-02-27T02:40:00.969Z,0
2017-02-27T02:41:09.973Z,0
2017-02-27T02:42:18.979Z,0
2017-02-27T02:43:28.330Z,0
2017-02-27T02:44:37.323Z,0
2017-02-27T02:45:46.321Z,0
2017-02-27T02:46:55.297Z,0
2017-02-27T02:48:04.306Z,0
2017-02-27T02:49:13.612Z,0
2017-02-27T02:50:22.604Z,0
2017-02-27T02:51:31.603Z,0
2017-02-27T02:52:40.594Z,0
2017-02-27T02:53:49.606Z,0
2017-02-27T02:54:58.895Z,0
2017-02-27T02:56:07.876Z,0
2017-02-27T02:57:16.870Z,0
2017-02-27T02:58:26.280Z,0
2017-02-27T02:59:35.268Z,0
2017-02-27T03:00:44.573Z,0
2017-02-27T03:01:53.569Z,0
2017-02-27T03:03:02.571Z,0
2017-02-27T03:04:11.550Z,0
2017-02-27T03:05:20.556Z,0
2017-02-27T03:06:29.859Z,0
2017-02-27T03:07:38.869Z,0
2017-02-27T03:08:47.883Z,0
2017-02-27T03:09:56.863Z,0
2017-02-27T03:11:06.284Z,0
2017-02-27T03:12:15.585Z,0
2017-02-27T03:13:24.613Z,0
2017-02-27T03:14:33.804Z,0
2017-02-27T03:15:42.911Z,0
2017-02-27T03:16:51.916Z,0
2017-02-27T03:18:01.218Z,0
2017-02-27T03:19:10.207Z,0
2017-02-27T03:20:19.206Z,0
2017-02-27T03:21:29.010Z,0
2017-02-27T03:22:37.999Z,0
2017-02-27T03:23:47.300Z,0
2017-02-27T03:24:56.281Z,0
2017-02-27T03:26:05.293Z,0
2017-02-27T03:27:14.302Z,0
2017-02-27T03:28:23.809Z,0
2017-02-27T03:29:33.118Z,0
2017-02-27T03:30:42.192Z,0
2017-02-27T03:31:51.166Z,0
2017-02-27T03:33:00.162Z,0
2017-02-27T03:34:09.156Z,0
2017-02-27T03:35:18.450Z,0
2017-02-27T03:36:27.447Z,0
2017-02-27T03:37:36.431Z,0
2017-02-27T03:38:45.411Z,0
2017-02-27T03:39:54.482Z,0
2017-02-27T03:41:03.726Z,0
2017-02-27T03:42:12.722Z,0
2017-02-27T03:43:21.706Z,0
2017-02-27T03:44:31.103Z,0
2017-02-27T03:45:40.113Z,0
2017-02-27T03:46:49.367Z,0
2017-02-27T03:47:58.473Z,0
2017-02-27T03:49:07.473Z,0
2017-02-27T03:50:16.456Z,0
2017-02-27T03:51:25.441Z,0
2017-02-27T03:52:34.725Z,0
2017-02-27T03:53:43.740Z,0
2017-02-27T03:54:52.717Z,0
2017-02-27T03:56:01.698Z,0
2017-02-27T03:57:10.763Z,0
2017-02-27T03:58:20.049Z,0
2017-02-27T03:59:29.037Z,0
2017-02-27T04:00:38.019Z,0
2017-02-27T04:01:47.005Z,0
2017-02-27T04:02:56.131Z,0
2017-02-27T04:04:05.844Z,0
2017-02-27T04:05:14.915Z,0
2017-02-27T04:06:23.928Z,0
2017-02-27T04:07:32.910Z,0
2017-02-27T04:08:42.013Z,0
2017-02-27T04:09:51.361Z,0
2017-02-27T04:11:00.424Z,0
2017-02-27T04:12:09.408Z,0
2017-02-27T04:13:18.417Z,0
2017-02-27T04:14:27.437Z,0
2017-02-27T04:15:36.672Z,0
2017-02-27T04:16:45.678Z,0
2017-02-27T04:17:54.870Z,0
2017-02-27T04:19:03.862Z,0
2017-02-27T04:20:12.857Z,0
2017-02-27T04:21:22.138Z,0
2017-02-27T04:22:31.166Z,0
2017-02-27T04:23:40.147Z,0
2017-02-27T04:24:49.145Z,0
2017-02-27T04:25:58.131Z,0
2017-02-27T04:27:07.379Z,0
2017-02-27T04:28:16.360Z,0
2017-02-27T04:29:25.359Z,0
2017-02-27T04:30:34.365Z,0
2017-02-27T04:31:43.373Z,0
2017-02-27T04:32:53.073Z,0
2017-02-27T04:34:02.137Z,0
2017-02-27T04:35:11.530Z,0
2017-02-27T04:36:20.513Z,0
2017-02-27T04:37:29.513Z,0
2017-02-27T04:38:38.792Z,0
2017-02-27T04:39:47.788Z,0
2017-02-27T04:40:56.774Z,0
2017-02-27T04:42:05.774Z,0
2017-02-27T04:43:14.768Z,0
2017-02-27T04:44:24.143Z,0
2017-02-27T04:45:33.147Z,0
2017-02-27T04:46:42.147Z,0
2017-02-27T04:47:51.131Z,0
2017-02-27T04:49:00.113Z,0
2017-02-27T04:50:09.398Z,0
2017-02-27T04:51:18.388Z,0
2017-02-27T04:52:27.482Z,0
2017-02-27T04:53:36.515Z,0
2017-02-27T04:54:46.420Z,0
2017-02-27T04:55:55.734Z,0
2017-02-27T04:57:04.804Z,0
2017-02-27T04:58:13.792Z,0
2017-02-27T04:59:22.805Z,0
2017-02-27T05:00:31.883Z,0
2017-02-27T05:01:41.178Z,0
2017-02-27T05:02:50.172Z,0
2017-02-27T05:03:59.555Z,0
2017-02-27T05:05:08.557Z,0
2017-02-27T05:06:17.677Z,0
2017-02-27T05:07:27.052Z,0
2017-02-27T05:08:36.039Z,0
2017-02-27T05:09:45.024Z,0
2017-02-27T05:10:53.998Z,0
2017-02-27T05:12:02.990Z,0
2017-02-27T05:13:12.226Z,0
2017-02-27T05:14:21.628Z,0
2017-02-27T05:15:30.632Z,0
2017-02-27T05:16:39.626Z,0
2017-02-27T05:17:48.616Z,0
2017-02-27T05:18:57.906Z,0
2017-02-27T05:20:06.903Z,0
2017-02-27T05:21:15.906Z,0
2017-02-27T05:22:24.887Z,0
2017-02-27T05:23:33.901Z,0
2017-02-27T05:24:43.210Z,0
2017-02-27T05:25:52.301Z,0
2017-02-27T05:27:01.307Z,0
2017-02-27T05:28:10.292Z,0
2017-02-27T05:29:19.287Z,0
2017-02-27T05:30:28.974Z,4
2017-02-27T05:31:38.053Z,0
2017-02-27T05:32:47.028Z,4
2017-02-27T05:33:56.014Z,4
2017-02-27T05:35:05.005Z,4
2017-02-27T05:36:14.335Z,4
2017-02-27T05:37:23.316Z,4
2017-02-27T05:38:32.393Z,4
2017-02-27T05:39:41.385Z,8
2017-02-27T05:40:50.462Z,12
2017-02-27T05:41:59.751Z,12
2017-02-27T05:43:08.765Z,12
2017-02-27T05:44:17.774Z,16
2017-02-27T05:45:26.782Z,20
2017-02-27T05:46:35.782Z,24
2017-02-27T05:47:45.070Z,24
2017-02-27T05:48:54.136Z,28
2017-02-27T05:50:03.238Z,36
2017-02-27T05:51:12.220Z,40
2017-02-27T05:52:21.632Z,48
2017-02-27T05:53:30.913Z,52
2017-02-27T05:54:40.010Z,56
2017-02-27T05:55:49.003Z,64
2017-02-27T05:56:57.984Z,68
2017-02-27T05:58:06.982Z,76
2017-02-27T05:59:15.973Z,80
2017-02-27T06:00:24.965Z,88
2017-02-27T06:01:34.174Z,96
2017-02-27T06:02:43.151Z,104
2017-02-27T06:03:52.518Z,112
2017-02-27T06:05:01.576Z,128
2017-02-27T06:06:10.555Z,140
2017-02-27T06:07:19.551Z,148
2017-02-27T06:08:28.554Z,148
2017-02-27T06:09:38.277Z,164
2017-02-27T06:10:47.270Z,172
2017-02-27T06:11:56.292Z,184
2017-02-27T06:13:05.296Z,196
2017-02-27T06:14:14.290Z,224
2017-02-27T06:15:23.980Z,236
2017-02-27T06:16:32.972Z,252
2017-02-27T06:17:41.955Z,288
2017-02-27T06:18:51.035Z,320
2017-02-27T06:20:00.018Z,368
2017-02-27T06:21:09.265Z,380
2017-02-27T06:22:18.369Z,356
2017-02-27T06:23:27.360Z,364
2017-02-27T06:24:36.338Z,404
2017-02-27T06:25:45.750Z,432
2017-02-27T06:26:55.024Z,456
2017-02-27T06:28:04.017Z,476
2017-02-27T06:29:13.020Z,508
2017-02-27T06:30:22.182Z,504
2017-02-27T06:31:31.180Z,492
2017-02-27T06:32:40.426Z,468
2017-02-27T06:33:49.402Z,452
2017-02-27T06:34:58.388Z,448
2017-02-27T06:36:07.795Z,456
2017-02-27T06:37:16.778Z,464
2017-02-27T06:38:26.004Z,468
2017-02-27T06:39:34.983Z,480
2017-02-27T06:40:43.999Z,496
2017-02-27T06:41:53.070Z,520
2017-02-27T06:43:02.052Z,540
2017-02-27T06:44:11.419Z,560
2017-02-27T06:45:20.411Z,576
2017-02-27T06:46:29.404Z,588
2017-02-27T06:47:38.395Z,592
2017-02-27T06:48:47.375Z,584
2017-02-27T06:49:56.994Z,576
2017-02-27T06:51:06.272Z,576
2017-02-27T06:52:15.256Z,580
2017-02-27T06:53:24.354Z,592
2017-02-27T06:54:34.104Z,600
2017-02-27T06:55:44.120Z,612
2017-02-27T06:56:53.127Z,616
2017-02-27T06:58:02.136Z,636
2017-02-27T06:59:11.465Z,640
2017-02-27T07:00:21.621Z,636
2017-02-27T07:01:31.664Z,640
2017-02-27T07:02:40.640Z,644
2017-02-27T07:03:50.561Z,652
2017-02-27T07:04:59.810Z,660
2017-02-27T07:06:08.997Z,672
2017-02-27T07:07:18.352Z,668
2017-02-27T07:08:27.430Z,684
2017-02-27T07:09:37.014Z,688
2017-02-27T07:10:46.620Z,696
2017-02-27T07:11:56.348Z,704
2017-02-27T07:13:05.911Z,708
2017-02-27T07:14:14.921Z,716
2017-02-27T07:15:23.937Z,724
2017-02-27T07:16:33.018Z,724
2017-02-27T07:17:42.093Z,724
2017-02-27T07:18:51.394Z,720
2017-02-27T07:20:01.115Z,732
2017-02-27T07:21:10.112Z,744
2017-02-27T07:22:20.944Z,744
2017-02-27T07:23:31.655Z,728
2017-02-27T07:24:42.047Z,744
2017-02-27T07:25:51.432Z,792
2017-02-27T07:27:00.812Z,812
2017-02-27T07:28:10.662Z,856
2017-02-27T07:29:19.971Z,928
2017-02-27T07:30:29.623Z,1040
2017-02-27T07:31:39.017Z,1144
2017-02-27T07:32:49.280Z,1112
2017-02-27T07:33:58.575Z,1000
2017-02-27T07:35:07.587Z,984
2017-02-27T07:36:16.881Z,1020
2017-02-27T07:37:26.433Z,1060
2017-02-27T07:38:35.609Z,1064
2017-02-27T07:39:44.620Z,1060
2017-02-27T07:40:54.285Z,1032
2017-02-27T07:42:03.580Z,1004
2017-02-27T07:43:12.614Z,976
2017-02-27T07:44:22.225Z,924
2017-02-27T07:45:31.203Z,872
2017-02-27T07:46:40.183Z,852
2017-02-27T07:47:49.985Z,836
2017-02-27T07:48:58.974Z,840
2017-02-27T07:50:08.385Z,916
2017-02-27T07:51:17.387Z,944
2017-02-27T07:52:26.470Z,928
2017-02-27T07:53:35.840Z,968
2017-02-27T07:54:45.220Z,980
2017-02-27T07:55:54.305Z,940
2017-02-27T07:57:03.801Z,964
2017-02-27T07:58:12.778Z,1012
2017-02-27T07:59:22.064Z,1076
2017-02-27T08:00:31.404Z,1124
2017-02-27T08:01:40.398Z,1108
2017-02-27T08:02:49.396Z,1120
2017-02-27T08:03:58.379Z,1132
2017-02-27T08:05:07.670Z,1176
2017-02-27T08:06:16.654Z,1172
2017-02-27T08:07:26.147Z,1056
2017-02-27T08:08:35.133Z,972
2017-02-27T08:09:44.202Z,1064
2017-02-27T08:10:53.539Z,1056
2017-02-27T08:12:02.519Z,940
2017-02-27T08:13:11.505Z,1028
2017-02-27T08:14:20.495Z,1088
2017-02-27T08:15:29.481Z,1116
2017-02-27T08:16:38.774Z,1228
2017-02-27T08:17:47.765Z,1332
2017-02-27T08:18:57.298Z,1428
2017-02-27T08:20:06.283Z,1476
2017-02-27T08:21:15.268Z,1488
2017-02-27T08:22:24.611Z,1524
2017-02-27T08:23:33.631Z,1552
2017-02-27T08:24:42.616Z,1528
2017-02-27T08:25:51.601Z,1516
2017-02-27T08:27:00.575Z,1488
2017-02-27T08:28:09.864Z,1452
2017-02-27T08:29:18.860Z,1428
2017-02-27T08:30:28.412Z,1376
2017-02-27T08:31:37.485Z,1328
2017-02-27T08:32:46.480Z,1304
2017-02-27T08:33:55.746Z,1292
2017-02-27T08:35:04.722Z,1284
2017-02-27T08:36:13.713Z,1292
2017-02-27T08:37:23.194Z,1300
2017-02-27T08:38:32.250Z,1288
2017-02-27T08:39:41.617Z,1268
2017-02-27T08:40:50.609Z,1264
2017-02-27T08:41:59.647Z,1256
2017-02-27T08:43:08.971Z,1256
2017-02-27T08:44:18.379Z,1264
2017-02-27T08:45:28.261Z,1256
2017-02-27T08:46:37.267Z,1256
2017-02-27T08:47:46.278Z,1260
2017-02-27T08:48:55.271Z,1268
2017-02-27T08:50:04.349Z,1276
2017-02-27T08:51:13.739Z,1276
2017-02-27T08:52:22.716Z,1276
2017-02-27T08:53:31.709Z,1276
2017-02-27T08:54:40.798Z,1280
2017-02-27T08:55:49.790Z,1284
2017-02-27T08:56:59.071Z,1284
2017-02-27T08:58:08.156Z,1280
2017-02-27T08:59:17.159Z,1284
2017-02-27T09:00:26.205Z,1292
2017-02-27T09:01:35.203Z,1288
2017-02-27T09:02:44.542Z,1300
2017-02-27T09:03:53.617Z,1308
2017-02-27T09:05:02.848Z,1308
2017-02-27T09:06:12.404Z,1308
2017-02-27T09:07:21.415Z,1312
2017-02-27T09:08:30.713Z,1316
2017-02-27T09:09:39.703Z,1328
2017-02-27T09:10:48.691Z,1328
2017-02-27T09:11:57.941Z,1332
2017-02-27T09:13:06.936Z,1344
2017-02-27T09:14:16.758Z,1280
2017-02-27T09:15:26.462Z,1248
2017-02-27T09:16:35.444Z,1184
2017-02-27T09:17:44.885Z,1308
2017-02-27T09:18:54.288Z,1344
2017-02-27T09:20:03.575Z,1384
2017-02-27T09:21:12.649Z,1400
2017-02-27T09:22:21.661Z,1412
2017-02-27T09:23:30.650Z,1500
2017-02-27T09:24:39.629Z,1668
2017-02-27T09:25:48.939Z,1892
2017-02-27T09:26:57.947Z,2008
2017-02-27T09:28:07.367Z,1900
2017-02-27T09:29:16.788Z,1736
2017-02-27T09:30:25.871Z,1624
2017-02-27T09:31:35.256Z,1552
2017-02-27T09:32:44.244Z,1520
2017-02-27T09:33:53.222Z,1500
2017-02-27T09:35:03.288Z,1488
2017-02-27T09:36:12.297Z,1468
2017-02-27T09:37:21.609Z,1452
2017-02-27T09:38:32.609Z,1432
2017-02-27T09:39:44.235Z,1420
2017-02-27T09:40:55.812Z,1424
2017-02-27T09:42:05.234Z,1420
2017-02-27T09:43:14.694Z,1420
2017-02-27T09:44:23.681Z,1424
2017-02-27T09:45:32.680Z,1428
2017-02-27T09:46:42.107Z,1432
2017-02-27T09:47:51.188Z,1440
2017-02-27T09:49:00.472Z,1436
2017-02-27T09:50:09.474Z,1440
2017-02-27T09:51:18.797Z,1436
2017-02-27T09:52:28.163Z,1444
2017-02-27T09:53:37.489Z,1452
2017-02-27T09:54:46.909Z,1448
2017-02-27T09:55:56.824Z,1452
2017-02-27T09:57:05.834Z,1452
2017-02-27T09:58:14.858Z,1456
2017-02-27T09:59:23.835Z,1452
2017-02-27T10:00:33.236Z,1460
2017-02-27T10:01:42.223Z,1456
2017-02-27T10:02:51.225Z,1448
2017-02-27T10:04:00.230Z,1456
2017-02-27T10:05:09.233Z,1460
2017-02-27T10:06:18.549Z,1468
2017-02-27T10:07:27.552Z,1464
2017-02-27T10:08:36.526Z,1464
2017-02-27T10:09:45.515Z,1464
2017-02-27T10:10:54.506Z,1464
2017-02-27T10:12:03.819Z,1456
2017-02-27T10:13:12.824Z,1456
2017-02-27T10:14:21.829Z,1460
2017-02-27T10:15:30.831Z,1464
2017-02-27T10:16:39.828Z,1476
2017-02-27T10:17:49.211Z,1508
2017-02-27T10:18:58.210Z,1520
2017-02-27T10:20:07.198Z,1488
2017-02-27T10:21:16.182Z,1472
2017-02-27T10:22:25.184Z,1484
2017-02-27T10:23:34.478Z,1492
2017-02-27T10:24:43.485Z,1484
2017-02-27T10:25:52.620Z,1488
2017-02-27T10:27:01.612Z,1520
2017-02-27T10:28:10.609Z,1536
2017-02-27T10:29:19.897Z,1524
2017-02-27T10:30:28.976Z,1516
2017-02-27T10:31:37.958Z,1552
2017-02-27T10:32:46.944Z,1740
2017-02-27T10:33:56.420Z,1652
2017-02-27T10:35:05.746Z,1684
2017-02-27T10:36:14.775Z,1600
2017-02-27T10:37:23.762Z,1596
2017-02-27T10:38:33.182Z,1600
2017-02-27T10:39:42.174Z,1644
2017-02-27T10:40:51.406Z,2628
2017-02-27T10:42:00.393Z,2492
2017-02-27T10:43:09.378Z,2820
2017-02-27T10:44:18.384Z,3016
2017-02-27T10:45:27.889Z,2752
2017-02-27T10:46:37.276Z,2248
2017-02-27T10:47:46.288Z,1840
2017-02-27T10:48:55.286Z,1988
2017-02-27T10:50:04.591Z,2004
2017-02-27T10:51:13.669Z,2428
2017-02-27T10:52:22.955Z,2544
2017-02-27T10:53:31.939Z,2268
2017-02-27T10:54:41.390Z,2384
2017-02-27T10:55:50.378Z,2952
2017-02-27T10:56:59.360Z,2424
2017-02-27T10:58:09.569Z,2008
2017-02-27T10:59:18.960Z,1628
2017-02-27T11:00:27.941Z,1728
2017-02-27T11:01:36.939Z,2668
2017-02-27T11:02:45.928Z,3164
2017-02-27T11:03:55.244Z,3632
2017-02-27T11:05:04.234Z,3700
2017-02-27T11:06:13.216Z,3692
2017-02-27T11:07:22.660Z,4524
2017-02-27T11:08:31.846Z,4348
2017-02-27T11:09:41.531Z,3516
2017-02-27T11:10:50.528Z,3092
2017-02-27T11:11:59.706Z,2684
2017-02-27T11:13:08.717Z,3440
2017-02-27T11:14:17.840Z,3452
2017-02-27T11:15:27.502Z,3532
2017-02-27T11:16:36.633Z,4136
2017-02-27T11:17:45.616Z,4004
2017-02-27T11:18:54.605Z,3796
2017-02-27T11:20:03.599Z,3900
2017-02-27T11:21:12.910Z,4040
2017-02-27T11:22:21.992Z,4108
2017-02-27T11:23:31.061Z,3884
2017-02-27T11:24:40.386Z,3940
2017-02-27T11:25:49.482Z,4088
2017-02-27T11:26:58.796Z,3300
2017-02-27T11:28:07.789Z,3376
2017-02-27T11:29:16.792Z,3624
2017-02-27T11:30:25.783Z,3368
2017-02-27T11:31:35.771Z,3196
2017-02-27T11:32:45.051Z,3676
2017-02-27T11:33:54.053Z,2996
2017-02-27T11:35:03.049Z,2852
2017-02-27T11:36:12.043Z,2892
2017-02-27T11:37:21.041Z,3136
2017-02-27T11:38:30.353Z,3128
2017-02-27T11:39:39.432Z,2976
2017-02-27T11:40:48.419Z,3152
2017-02-27T11:41:57.419Z,3440
2017-02-27T11:43:06.406Z,3620
2017-02-27T11:44:15.735Z,3596
2017-02-27T11:45:24.725Z,3432
2017-02-27T11:46:33.727Z,3752
2017-02-27T11:47:42.707Z,3920
2017-02-27T11:48:51.804Z,3920
2017-02-27T11:50:01.205Z,4084
2017-02-27T11:51:10.183Z,3936
2017-02-27T11:52:19.588Z,4028
2017-02-27T11:53:28.581Z,3640
2017-02-27T11:54:37.592Z,3764
2017-02-27T11:55:46.853Z,3372
2017-02-27T11:56:56.022Z,2972
2017-02-27T11:58:05.014Z,3240
2017-02-27T11:59:14.081Z,3028
2017-02-27T12:00:23.464Z,3168
2017-02-27T12:01:32.758Z,3344
2017-02-27T12:02:41.739Z,3060
2017-02-27T12:03:50.728Z,3292
2017-02-27T12:04:59.722Z,3288
2017-02-27T12:06:08.721Z,3736
2017-02-27T12:07:18.358Z,3848
2017-02-27T12:08:27.348Z,3488
2017-02-27T12:09:36.332Z,3960
2017-02-27T12:10:45.333Z,3340
2017-02-27T12:11:54.334Z,3476
2017-02-27T12:13:03.629Z,3840
2017-02-27T12:14:12.630Z,3536
2017-02-27T12:15:21.624Z,3748
2017-02-27T12:16:30.614Z,3664
2017-02-27T12:17:39.619Z,3492
2017-02-27T12:18:48.925Z,3796
2017-02-27T12:19:57.909Z,3904
2017-02-27T12:21:06.907Z,3504
2017-02-27T12:22:15.978Z,3040
2017-02-27T12:23:24.966Z,2996
2017-02-27T12:24:34.267Z,3372
2017-02-27T12:25:43.278Z,3080
2017-02-27T12:26:52.680Z,3196
2017-02-27T12:28:01.687Z,3096
2017-02-27T12:29:10.693Z,3004
2017-02-27T12:30:19.975Z,2736
2017-02-27T12:31:28.976Z,2800
2017-02-27T12:32:37.962Z,2540
2017-02-27T12:33:46.949Z,2448
2017-02-27T12:34:55.962Z,2408
2017-02-27T12:36:05.270Z,2420
2017-02-27T12:37:14.890Z,2596
2017-02-27T12:38:24.460Z,2816
2017-02-27T12:39:34.385Z,2904
2017-02-27T12:40:43.693Z,2836
2017-02-27T12:41:53.287Z,3148
2017-02-27T12:43:02.684Z,2928
2017-02-27T12:44:11.672Z,3080
2017-02-27T12:45:20.664Z,3284
2017-02-27T12:46:29.667Z,3284
2017-02-27T12:47:40.668Z,3216
2017-02-27T12:48:49.950Z,3416
2017-02-27T12:49:59.604Z,3264
2017-02-27T12:51:08.600Z,3292
2017-02-27T12:52:17.627Z,3176
2017-02-27T12:53:26.919Z,3276
2017-02-27T12:54:35.945Z,3120
2017-02-27T12:55:45.190Z,3152
2017-02-27T12:56:54.177Z,3060
2017-02-27T12:58:03.832Z,3252
2017-02-27T12:59:13.441Z,3056
2017-02-27T13:00:23.019Z,2972
2017-02-27T13:01:32.019Z,2960
2017-02-27T13:02:41.028Z,3104
2017-02-27T13:03:50.487Z,3116
2017-02-27T13:04:59.825Z,2984
2017-02-27T13:06:08.828Z,2912
2017-02-27T13:07:17.922Z,2908
2017-02-27T13:08:26.926Z,3108
2017-02-27T13:09:35.929Z,2916
2017-02-27T13:10:45.245Z,3032
2017-02-27T13:11:54.954Z,2948
2017-02-27T13:13:03.956Z,2896
2017-02-27T13:14:13.362Z,2980
2017-02-27T13:15:22.357Z,3160
2017-02-27T13:16:31.644Z,3092
2017-02-27T13:17:40.637Z,3144
2017-02-27T13:18:49.650Z,3100
2017-02-27T13:19:58.678Z,2968
2017-02-27T13:21:07.680Z,2780
2017-02-27T13:22:17.390Z,2648
2017-02-27T13:23:26.417Z,2836
2017-02-27T13:24:35.401Z,2888
2017-02-27T13:25:44.402Z,2888
2017-02-27T13:26:53.395Z,3208
2017-02-27T13:28:02.797Z,3052
2017-02-27T13:29:11.820Z,3160
2017-02-27T13:30:20.841Z,3524
2017-02-27T13:31:29.838Z,3652
2017-02-27T13:32:38.822Z,3548
2017-02-27T13:33:49.245Z,2384
2017-02-27T13:34:58.539Z,2188
2017-02-27T13:36:07.784Z,1556
2017-02-27T13:37:18.104Z,1204
2017-02-27T13:38:28.889Z,1172
2017-02-27T13:39:39.327Z,1024
2017-02-27T13:40:49.381Z,1068
2017-02-27T13:41:59.878Z,1488
2017-02-27T13:43:10.384Z,1424
2017-02-27T13:44:20.401Z,1412
2017-02-27T13:45:30.171Z,1388
2017-02-27T13:46:39.883Z,1360
2017-02-27T13:47:49.332Z,1380
2017-02-27T13:48:58.725Z,1368
2017-02-27T13:50:07.741Z,1340
2017-02-27T13:51:17.045Z,1296
2017-02-27T13:52:26.024Z,1336
2017-02-27T13:53:35.013Z,1144
2017-02-27T13:54:43.994Z,1196
2017-02-27T13:55:53.010Z,944
2017-02-27T13:57:02.253Z,912
2017-02-27T13:58:11.240Z,908
2017-02-27T13:59:20.256Z,912
2017-02-27T14:00:29.699Z,1776
2017-02-27T14:01:39.695Z,908
2017-02-27T14:02:50.600Z,964
2017-02-27T14:04:00.812Z,860
2017-02-27T14:05:10.321Z,1088
2017-02-27T14:06:20.196Z,940
2017-02-27T14:07:29.277Z,1252
2017-02-27T14:08:38.564Z,1252
2017-02-27T14:09:48.106Z,1248
2017-02-27T14:10:57.651Z,1232
2017-02-27T14:12:06.661Z,1176
2017-02-27T14:13:16.089Z,1216
2017-02-27T14:14:25.320Z,1224
2017-02-27T14:15:34.843Z,1212
2017-02-27T14:16:45.547Z,1232
2017-02-27T14:17:55.584Z,1228
2017-02-27T14:19:04.984Z,1248
2017-02-27T14:20:14.229Z,1220
2017-02-27T14:21:23.223Z,1208
2017-02-27T14:22:32.222Z,1224
2017-02-27T14:23:41.301Z,1248
2017-02-27T14:24:50.301Z,1248
2017-02-27T14:25:59.543Z,1196
2017-02-27T14:27:08.536Z,1176
2017-02-27T14:28:17.620Z,1200
2017-02-27T14:29:27.035Z,1176
2017-02-27T14:30:36.022Z,1160
2017-02-27T14:31:45.312Z,1124
2017-02-27T14:32:54.312Z,1100
2017-02-27T14:34:03.309Z,1096
2017-02-27T14:35:12.386Z,1080
2017-02-27T14:36:21.404Z,1068
2017-02-27T14:37:30.646Z,1060
2017-02-27T14:38:40.135Z,1040
2017-02-27T14:39:49.135Z,1036
2017-02-27T14:40:58.953Z,1028
2017-02-27T14:42:07.963Z,1004
2017-02-27T14:43:17.243Z,988
2017-02-27T14:44:26.632Z,976
2017-02-27T14:45:35.630Z,980
2017-02-27T14:46:44.621Z,968
2017-02-27T14:47:53.602Z,956
2017-02-27T14:49:02.906Z,932
2017-02-27T14:50:11.909Z,996
2017-02-27T14:51:20.903Z,932
2017-02-27T14:52:29.912Z,900
2017-02-27T14:53:38.899Z,888
2017-02-27T14:54:48.606Z,868
2017-02-27T14:55:57.613Z,960
2017-02-27T14:57:06.599Z,948
2017-02-27T14:58:15.685Z,924
2017-02-27T14:59:24.664Z,888
2017-02-27T15:00:33.968Z,848
2017-02-27T15:01:42.965Z,860
2017-02-27T15:02:51.975Z,768
2017-02-27T15:04:00.964Z,696
2017-02-27T15:05:10.035Z,800
2017-02-27T15:06:19.352Z,720
2017-02-27T15:07:28.373Z,660
2017-02-27T15:08:37.363Z,696
2017-02-27T15:09:46.350Z,664
2017-02-27T15:10:55.344Z,744
2017-02-27T15:12:04.637Z,736
2017-02-27T15:13:13.615Z,744
2017-02-27T15:14:22.622Z,712
2017-02-27T15:15:31.617Z,656
2017-02-27T15:16:41.026Z,712
2017-02-27T15:17:50.368Z,712
2017-02-27T15:18:59.349Z,700
2017-02-27T15:20:08.770Z,640
2017-02-27T15:21:18.194Z,660
2017-02-27T15:22:27.214Z,624
2017-02-27T15:23:36.510Z,596
2017-02-27T15:24:45.498Z,672
2017-02-27T15:25:54.489Z,784
2017-02-27T15:27:03.979Z,816
2017-02-27T15:28:12.962Z,764
2017-02-27T15:29:22.602Z,676
2017-02-27T15:30:31.695Z,636
2017-02-27T15:31:40.784Z,560
2017-02-27T15:32:49.761Z,540
2017-02-27T15:33:59.160Z,552
2017-02-27T15:35:08.449Z,540
2017-02-27T15:36:17.431Z,524
2017-02-27T15:37:26.526Z,524
2017-02-27T15:38:35.501Z,528
2017-02-27T15:39:44.508Z,604
2017-02-27T15:40:53.802Z,736
2017-02-27T15:42:02.783Z,808
2017-02-27T15:43:11.797Z,760
2017-02-27T15:44:20.795Z,604
2017-02-27T15:45:29.781Z,572
2017-02-27T15:46:39.069Z,536
2017-02-27T15:47:48.172Z,576
2017-02-27T15:48:57.165Z,516
2017-02-27T15:50:06.148Z,512
2017-02-27T15:51:15.136Z,488
2017-02-27T15:52:24.775Z,448
2017-02-27T15:53:33.789Z,464
2017-02-27T15:54:42.771Z,444
2017-02-27T15:55:52.179Z,440
2017-02-27T15:57:01.654Z,408
2017-02-27T15:58:10.956Z,396
2017-02-27T15:59:19.935Z,372
2017-02-27T16:00:28.960Z,356
2017-02-27T16:01:37.953Z,352
2017-02-27T16:02:46.946Z,344
2017-02-27T16:03:56.516Z,332
2017-02-27T16:05:06.426Z,324
2017-02-27T16:06:15.413Z,312
2017-02-27T16:07:24.695Z,304
2017-02-27T16:08:33.674Z,292
2017-02-27T16:09:42.969Z,280
2017-02-27T16:10:51.972Z,268
2017-02-27T16:12:00.954Z,260
2017-02-27T16:13:10.029Z,244
2017-02-27T16:14:19.234Z,232
2017-02-27T16:15:28.736Z,220
2017-02-27T16:16:37.859Z,208
2017-02-27T16:17:46.977Z,192
2017-02-27T16:18:56.198Z,180
2017-02-27T16:20:05.203Z,168